sensor_id;sensor_type;location;lat;lon;timestamp;pressure;altitude;pressure_sealevel;temperature;humidity
63901;BME280;50538;53.482;10.294;2024-01-16T00:05:10;99746.13;;;-0.32;100.00
63901;BME280;50538;53.482;10.294;2024-01-16T00:15:16;99748.63;;;-0.42;100.00
63901;BME280;50538;53.482;10.294;2024-01-16T00:25:17;99756.00;;;-0.47;100.00
63901;BME280;50538;53.482;10.294;2024-01-16T00:35:20;99776.03;;;-0.47;100.00
63901;BME280;50538;53.482;10.294;2024-01-16T00:45:23;99792.16;;;-0.53;100.00
63901;BME280;50538;53.482;10.294;2024-01-16T00:55:30;99804.97;;;-0.50;100.00
63901;BME280;50538;53.482;10.294;2024-01-16T01:05:32;99813.50;;;-0.48;100.00
63901;BME280;50538;53.482;10.294;2024-01-16T01:15:35;99828.44;;;-0.50;100.00
63901;BME280;50538;53.482;10.294;2024-01-16T01:25:36;99844.78;;;-0.48;100.00
63901;BME280;50538;53.482;10.294;2024-01-16T01:35:38;99846.06;;;-0.54;100.00
63901;BME280;50538;53.482;10.294;2024-01-16T01:45:40;99859.00;;;-0.52;100.00
63901;BME280;50538;53.482;10.294;2024-01-16T01:55:43;99866.47;;;-0.48;100.00
63901;BME280;50538;53.482;10.294;2024-01-16T02:05:45;99865.88;;;-0.51;100.00
63901;BME280;50538;53.482;10.294;2024-01-16T02:15:49;99898.56;;;-0.58;100.00
63901;BME280;50538;53.482;10.294;2024-01-16T02:25:51;99905.44;;;-0.57;100.00
63901;BME280;50538;53.482;10.294;2024-01-16T02:35:53;99896.53;;;-0.66;100.00
63901;BME280;50538;53.482;10.294;2024-01-16T02:45:54;99915.13;;;-0.71;100.00
63901;BME280;50538;53.482;10.294;2024-01-16T02:55:55;99911.53;;;-0.81;100.00
63901;BME280;50538;53.482;10.294;2024-01-16T03:05:58;99910.78;;;-0.94;100.00
63901;BME280;50538;53.482;10.294;2024-01-16T03:15:59;99904.72;;;-1.06;100.00
63901;BME280;50538;53.482;10.294;2024-01-16T03:26:02;99903.00;;;-1.18;100.00
63901;BME280;50538;53.482;10.294;2024-01-16T03:36:04;99916.28;;;-1.34;100.00
63901;BME280;50538;53.482;10.294;2024-01-16T03:46:06;99921.53;;;-1.46;100.00
63901;BME280;50538;53.482;10.294;2024-01-16T03:56:07;99922.59;;;-1.49;100.00
63901;BME280;50538;53.482;10.294;2024-01-16T04:06:17;99932.19;;;-1.25;100.00
63901;BME280;50538;53.482;10.294;2024-01-16T04:16:18;99931.91;;;-1.34;100.00
63901;BME280;50538;53.482;10.294;2024-01-16T04:26:20;99921.84;;;-1.38;100.00
63901;BME280;50538;53.482;10.294;2024-01-16T04:36:23;99910.41;;;-1.48;100.00
63901;BME280;50538;53.482;10.294;2024-01-16T04:46:24;99928.00;;;-1.52;100.00
63901;BME280;50538;53.482;10.294;2024-01-16T04:56:24;99923.09;;;-1.44;100.00
63901;BME280;50538;53.482;10.294;2024-01-16T05:06:25;99919.13;;;-1.37;100.00
63901;BME280;50538;53.482;10.294;2024-01-16T05:16:27;99910.69;;;-1.40;100.00
63901;BME280;50538;53.482;10.294;2024-01-16T05:26:28;99928.75;;;-1.50;100.00
63901;BME280;50538;53.482;10.294;2024-01-16T05:36:28;99924.28;;;-1.60;100.00
63901;BME280;50538;53.482;10.294;2024-01-16T05:46:31;99938.53;;;-1.53;100.00
63901;BME280;50538;53.482;10.294;2024-01-16T05:56:31;99932.13;;;-1.37;100.00
63901;BME280;50538;53.482;10.294;2024-01-16T06:06:32;99928.88;;;-1.27;100.00
63901;BME280;50538;53.482;10.294;2024-01-16T06:16:35;99917.06;;;-1.20;100.00
63901;BME280;50538;53.482;10.294;2024-01-16T06:26:38;99918.78;;;-1.08;100.00
63901;BME280;50538;53.482;10.294;2024-01-16T06:36:39;99915.38;;;-0.98;100.00
63901;BME280;50538;53.482;10.294;2024-01-16T06:46:39;99923.69;;;-0.92;100.00
63901;BME280;50538;53.482;10.294;2024-01-16T06:56:40;99918.63;;;-0.83;100.00
63901;BME280;50538;53.482;10.294;2024-01-16T07:06:41;99931.22;;;-0.77;100.00
63901;BME280;50538;53.482;10.294;2024-01-16T07:16:47;99926.28;;;-0.69;100.00
63901;BME280;50538;53.482;10.294;2024-01-16T07:26:51;99923.22;;;-0.63;100.00
63901;BME280;50538;53.482;10.294;2024-01-16T07:37:06;99927.75;;;-0.53;100.00
63901;BME280;50538;53.482;10.294;2024-01-16T07:47:16;99927.41;;;-0.49;100.00
63901;BME280;50538;53.482;10.294;2024-01-16T07:57:41;99928.09;;;-0.47;100.00
63901;BME280;50538;53.482;10.294;2024-01-16T08:07:45;99944.59;;;-0.46;100.00
63901;BME280;50538;53.482;10.294;2024-01-16T08:17:52;99935.94;;;-0.47;100.00
63901;BME280;50538;53.482;10.294;2024-01-16T08:27:56;99944.94;;;-0.40;100.00
63901;BME280;50538;53.482;10.294;2024-01-16T08:37:57;99955.00;;;-0.35;100.00
63901;BME280;50538;53.482;10.294;2024-01-16T08:48:19;99965.94;;;-0.30;100.00
63901;BME280;50538;53.482;10.294;2024-01-16T08:58:20;99960.16;;;-0.22;100.00
63901;BME280;50538;53.482;10.294;2024-01-16T09:08:26;99972.38;;;-0.12;100.00
63901;BME280;50538;53.482;10.294;2024-01-16T09:18:28;99972.97;;;-0.08;100.00
63901;BME280;50538;53.482;10.294;2024-01-16T09:39:20;99969.41;;;0.15;100.00
63901;BME280;50538;53.482;10.294;2024-01-16T09:49:42;99971.19;;;0.26;100.00
63901;BME280;50538;53.482;10.294;2024-01-16T09:59:44;99980.22;;;0.33;100.00
63901;BME280;50538;53.482;10.294;2024-01-16T10:09:46;99986.16;;;0.35;100.00
63901;BME280;50538;53.482;10.294;2024-01-16T10:19:49;99994.00;;;0.46;100.00
63901;BME280;50538;53.482;10.294;2024-01-16T10:29:57;99988.75;;;0.68;100.00
63901;BME280;50538;53.482;10.294;2024-01-16T10:39:58;99989.50;;;0.91;100.00
63901;BME280;50538;53.482;10.294;2024-01-16T10:49:58;99988.06;;;0.98;100.00
63901;BME280;50538;53.482;10.294;2024-01-16T11:00:04;99991.97;;;1.04;100.00
63901;BME280;50538;53.482;10.294;2024-01-16T11:10:07;99987.81;;;1.13;100.00
63901;BME280;50538;53.482;10.294;2024-01-16T11:20:11;100000.38;;;1.19;100.00
63901;BME280;50538;53.482;10.294;2024-01-16T11:30:30;100006.50;;;1.29;100.00
63901;BME280;50538;53.482;10.294;2024-01-16T11:40:33;100000.31;;;1.30;100.00
63901;BME280;50538;53.482;10.294;2024-01-16T11:50:39;99999.06;;;1.24;100.00
63901;BME280;50538;53.482;10.294;2024-01-16T12:00:41;99999.75;;;1.26;100.00
63901;BME280;50538;53.482;10.294;2024-01-16T12:10:46;99999.34;;;1.31;100.00
63901;BME280;50538;53.482;10.294;2024-01-16T12:20:51;99998.53;;;1.30;100.00
63901;BME280;50538;53.482;10.294;2024-01-16T12:30:52;100011.88;;;1.27;100.00
63901;BME280;50538;53.482;10.294;2024-01-16T12:40:52;99995.88;;;1.42;100.00
63901;BME280;50538;53.482;10.294;2024-01-16T12:50:59;99996.84;;;1.41;100.00
63901;BME280;50538;53.482;10.294;2024-01-16T13:01:26;100001.09;;;1.42;100.00
63901;BME280;50538;53.482;10.294;2024-01-16T13:11:28;99997.56;;;1.31;100.00
63901;BME280;50538;53.482;10.294;2024-01-16T13:21:28;99999.75;;;1.26;100.00
63901;BME280;50538;53.482;10.294;2024-01-16T13:31:29;99992.69;;;1.38;100.00
63901;BME280;50538;53.482;10.294;2024-01-16T13:41:29;99987.56;;;1.16;100.00
63901;BME280;50538;53.482;10.294;2024-01-16T13:51:30;99989.38;;;1.04;100.00
63901;BME280;50538;53.482;10.294;2024-01-16T14:01:30;99988.91;;;0.99;100.00
63901;BME280;50538;53.482;10.294;2024-01-16T14:11:31;99993.31;;;0.98;100.00
63901;BME280;50538;53.482;10.294;2024-01-16T14:21:31;99986.28;;;0.99;100.00
63901;BME280;50538;53.482;10.294;2024-01-16T14:31:32;99989.03;;;0.97;100.00
63901;BME280;50538;53.482;10.294;2024-01-16T14:41:32;99999.97;;;0.91;100.00
63901;BME280;50538;53.482;10.294;2024-01-16T14:51:33;100006.28;;;0.89;100.00
63901;BME280;50538;53.482;10.294;2024-01-16T15:01:33;99998.56;;;0.87;100.00
63901;BME280;50538;53.482;10.294;2024-01-16T15:11:34;99996.19;;;0.84;100.00
63901;BME280;50538;53.482;10.294;2024-01-16T15:21:34;99990.13;;;0.84;100.00
63901;BME280;50538;53.482;10.294;2024-01-16T15:31:35;99994.53;;;0.83;100.00
63901;BME280;50538;53.482;10.294;2024-01-16T15:41:35;99990.25;;;0.82;100.00
63901;BME280;50538;53.482;10.294;2024-01-16T15:51:36;99992.97;;;0.81;100.00
63901;BME280;50538;53.482;10.294;2024-01-16T16:01:43;99993.81;;;0.81;100.00
63901;BME280;50538;53.482;10.294;2024-01-16T16:11:44;99995.59;;;0.81;100.00
63901;BME280;50538;53.482;10.294;2024-01-16T16:21:44;99988.00;;;0.78;100.00
63901;BME280;50538;53.482;10.294;2024-01-16T16:31:51;99988.00;;;0.78;100.00
63901;BME280;50538;53.482;10.294;2024-01-16T16:41:52;99985.38;;;0.78;100.00
63901;BME280;50538;53.482;10.294;2024-01-16T16:51:52;99977.88;;;0.84;100.00
63901;BME280;50538;53.482;10.294;2024-01-16T17:01:52;99979.31;;;0.77;100.00
63901;BME280;50538;53.482;10.294;2024-01-16T17:11:54;99975.06;;;0.76;100.00
63901;BME280;50538;53.482;10.294;2024-01-16T17:21:56;99979.69;;;0.73;100.00
63901;BME280;50538;53.482;10.294;2024-01-16T17:31:56;99987.53;;;0.73;100.00
63901;BME280;50538;53.482;10.294;2024-01-16T17:41:58;99984.09;;;0.72;100.00
63901;BME280;50538;53.482;10.294;2024-01-16T17:51:58;99978.97;;;0.70;100.00
63901;BME280;50538;53.482;10.294;2024-01-16T18:01:59;99975.94;;;0.65;100.00
63901;BME280;50538;53.482;10.294;2024-01-16T18:12:00;99985.91;;;0.60;100.00
63901;BME280;50538;53.482;10.294;2024-01-16T18:22:00;99980.69;;;0.60;100.00
63901;BME280;50538;53.482;10.294;2024-01-16T18:32:02;99981.75;;;0.58;100.00
63901;BME280;50538;53.482;10.294;2024-01-16T18:42:04;99965.38;;;0.56;100.00
63901;BME280;50538;53.482;10.294;2024-01-16T18:52:04;99969.66;;;0.57;100.00
63901;BME280;50538;53.482;10.294;2024-01-16T19:02:04;99972.38;;;0.55;100.00
63901;BME280;50538;53.482;10.294;2024-01-16T19:12:05;99969.88;;;0.54;100.00
63901;BME280;50538;53.482;10.294;2024-01-16T19:22:06;99967.75;;;0.48;100.00
63901;BME280;50538;53.482;10.294;2024-01-16T19:32:09;99963.59;;;0.45;100.00
63901;BME280;50538;53.482;10.294;2024-01-16T19:42:09;99955.28;;;0.40;100.00
63901;BME280;50538;53.482;10.294;2024-01-16T19:52:09;99962.19;;;0.30;100.00
63901;BME280;50538;53.482;10.294;2024-01-16T20:02:10;99959.09;;;0.25;100.00
63901;BME280;50538;53.482;10.294;2024-01-16T20:12:10;99956.00;;;0.20;100.00
63901;BME280;50538;53.482;10.294;2024-01-16T20:22:11;99938.22;;;0.14;100.00
63901;BME280;50538;53.482;10.294;2024-01-16T20:32:11;99939.41;;;-0.02;100.00
63901;BME280;50538;53.482;10.294;2024-01-16T20:42:12;99926.59;;;-0.16;100.00
63901;BME280;50538;53.482;10.294;2024-01-16T20:52:12;99923.25;;;-0.29;100.00
63901;BME280;50538;53.482;10.294;2024-01-16T21:02:13;99920.13;;;-0.45;100.00
63901;BME280;50538;53.482;10.294;2024-01-16T21:12:13;99908.66;;;-0.54;100.00
63901;BME280;50538;53.482;10.294;2024-01-16T21:22:13;99908.50;;;-0.64;100.00
63901;BME280;50538;53.482;10.294;2024-01-16T21:32:14;99892.50;;;-0.70;100.00
63901;BME280;50538;53.482;10.294;2024-01-16T21:42:16;99871.16;;;-0.75;100.00
63901;BME280;50538;53.482;10.294;2024-01-16T21:52:16;99856.91;;;-0.82;100.00
63901;BME280;50538;53.482;10.294;2024-01-16T22:02:16;99866.13;;;-0.89;100.00
63901;BME280;50538;53.482;10.294;2024-01-16T22:12:17;99848.59;;;-0.99;100.00
63901;BME280;50538;53.482;10.294;2024-01-16T22:22:17;99837.56;;;-1.02;100.00
63901;BME280;50538;53.482;10.294;2024-01-16T22:32:18;99827.00;;;-1.12;100.00
63901;BME280;50538;53.482;10.294;2024-01-16T22:42:18;99816.94;;;-1.16;100.00
63901;BME280;50538;53.482;10.294;2024-01-16T22:52:19;99802.38;;;-1.19;100.00
63901;BME280;50538;53.482;10.294;2024-01-16T23:02:20;99788.03;;;-1.24;100.00
63901;BME280;50538;53.482;10.294;2024-01-16T23:12:20;99775.94;;;-1.25;100.00
63901;BME280;50538;53.482;10.294;2024-01-16T23:22:20;99763.28;;;-1.30;100.00
63901;BME280;50538;53.482;10.294;2024-01-16T23:32:22;99741.13;;;-1.36;100.00
63901;BME280;50538;53.482;10.294;2024-01-16T23:42:24;99718.13;;;-1.42;100.00
63901;BME280;50538;53.482;10.294;2024-01-16T23:52:26;99700.59;;;-1.51;100.00
